createdAt,value
2018-12-10T00:02:00.816Z,73.80
2018-12-10T00:04:28.367Z,74.40
2018-12-10T00:06:55.884Z,74.90
2018-12-10T00:09:23.450Z,74.70
2018-12-10T00:11:50.973Z,75.80
2018-12-10T00:14:18.511Z,74.40
2018-12-10T00:16:46.301Z,75.00
2018-12-10T00:19:13.849Z,74.60
2018-12-10T00:21:41.362Z,74.10
2018-12-10T00:24:08.904Z,74.00
2018-12-10T00:26:36.513Z,73.80
2018-12-10T00:29:04.125Z,73.70
2018-12-10T00:31:31.698Z,74.20
2018-12-10T00:33:59.212Z,74.20
2018-12-10T00:36:28.110Z,74.40
2018-12-10T00:38:55.999Z,73.80
2018-12-10T00:41:23.539Z,73.70
2018-12-10T00:43:51.101Z,73.00
2018-12-10T00:46:18.827Z,74.00
2018-12-10T00:48:46.379Z,73.40
2018-12-10T00:51:13.928Z,73.60
2018-12-10T00:53:41.469Z,73.40
2018-12-10T00:56:09.150Z,73.10
2018-12-10T00:58:36.660Z,73.20
2018-12-10T01:01:04.270Z,74.20
2018-12-10T01:03:31.934Z,73.60
2018-12-10T01:05:59.492Z,74.00
2018-12-10T01:08:27.051Z,74.40
2018-12-10T01:10:54.612Z,74.50
2018-12-10T01:13:22.206Z,74.70
2018-12-10T01:15:49.765Z,74.40
2018-12-10T01:18:17.736Z,74.80
2018-12-10T01:20:45.316Z,75.10
2018-12-10T01:23:12.881Z,76.00
2018-12-10T01:25:40.738Z,76.00
2018-12-10T01:28:13.330Z,76.30
2018-12-10T01:30:40.884Z,76.20
2018-12-10T01:33:08.519Z,76.70
2018-12-10T01:35:36.083Z,76.70
2018-12-10T01:38:03.661Z,76.40
2018-12-10T01:40:31.232Z,76.40
2018-12-10T01:42:58.786Z,77.20
2018-12-10T01:45:26.526Z,77.00
2018-12-10T01:47:54.224Z,77.70
2018-12-10T01:50:21.783Z,78.60
2018-12-10T01:52:49.319Z,77.80
2018-12-10T01:55:16.873Z,77.80
2018-12-10T01:57:44.433Z,78.20
2018-12-10T02:00:12.182Z,78.00
2018-12-10T02:02:39.754Z,78.00
2018-12-10T02:05:07.489Z,77.90
2018-12-10T02:07:35.065Z,77.80
2018-12-10T02:10:02.597Z,78.20
2018-12-10T02:12:30.212Z,78.00
2018-12-10T02:14:57.740Z,78.10
2018-12-10T02:17:25.295Z,78.40
2018-12-10T02:19:52.803Z,78.10
2018-12-10T02:22:20.364Z,77.90
2018-12-10T02:24:47.907Z,77.80
2018-12-10T02:27:15.461Z,78.70
2018-12-10T02:29:43.076Z,78.20
2018-12-10T02:32:10.868Z,78.20
2018-12-10T02:34:38.385Z,78.30
2018-12-10T02:37:05.937Z,78.00
2018-12-10T02:39:33.481Z,78.90
2018-12-10T02:42:01.266Z,79.20
2018-12-10T02:44:28.832Z,78.90
2018-12-10T02:46:56.379Z,78.30
2018-12-10T02:49:24.096Z,78.70
2018-12-10T02:51:51.787Z,78.70
2018-12-10T02:54:19.426Z,79.30
2018-12-10T02:56:47.264Z,78.50
2018-12-10T02:59:14.805Z,77.80
2018-12-10T03:01:42.351Z,78.10
2018-12-10T03:04:09.919Z,78.10
2018-12-10T03:06:37.438Z,77.80
2018-12-10T03:09:05.595Z,76.90
2018-12-10T03:11:33.365Z,77.30
2018-12-10T03:14:00.907Z,76.50
2018-12-10T03:16:28.426Z,76.00
2018-12-10T03:18:56.044Z,76.30
2018-12-10T03:21:23.568Z,76.90
2018-12-10T03:23:51.106Z,77.20
2018-12-10T03:26:18.722Z,76.90
2018-12-10T03:28:46.230Z,77.60
2018-12-10T03:31:13.871Z,78.80
2018-12-10T03:33:41.496Z,79.00
2018-12-10T03:36:09.221Z,78.80
2018-12-10T03:38:36.781Z,78.90
2018-12-10T03:41:04.969Z,79.10
2018-12-10T03:43:32.519Z,78.90
2018-12-10T03:46:00.122Z,79.80
2018-12-10T03:48:27.633Z,79.80
2018-12-10T03:50:55.428Z,79.40
2018-12-10T03:53:23.826Z,79.30
2018-12-10T03:55:51.385Z,79.10
2018-12-10T03:58:18.914Z,79.10
2018-12-10T04:00:46.505Z,78.70
2018-12-10T04:03:14.029Z,79.00
2018-12-10T04:05:41.589Z,79.00
2018-12-10T04:08:09.142Z,78.80
2018-12-10T04:10:36.943Z,78.90
2018-12-10T04:13:04.513Z,78.10
2018-12-10T04:15:32.137Z,78.20
2018-12-10T04:17:59.824Z,78.30
2018-12-10T04:20:27.451Z,78.40
2018-12-10T04:22:55.006Z,78.40
2018-12-10T04:25:23.639Z,78.10
2018-12-10T04:27:51.157Z,78.10
2018-12-10T04:30:18.707Z,77.80
2018-12-10T04:32:46.218Z,78.20
2018-12-10T04:35:13.823Z,77.80
2018-12-10T04:37:41.388Z,76.90
2018-12-10T04:40:09.048Z,77.70
2018-12-10T04:42:36.600Z,76.90
2018-12-10T04:45:05.266Z,77.00
2018-12-10T04:47:32.826Z,77.20
2018-12-10T04:50:00.525Z,77.60
2018-12-10T04:52:28.355Z,77.40
2018-12-10T04:54:55.908Z,77.10
2018-12-10T04:57:23.475Z,76.80
2018-12-10T04:59:52.819Z,76.50
2018-12-10T05:02:20.871Z,77.20
2018-12-10T05:04:48.402Z,76.80
2018-12-10T05:07:16.010Z,77.00
2018-12-10T05:09:43.614Z,76.80
2018-12-10T05:12:11.126Z,77.10
2018-12-10T05:14:38.684Z,77.40
2018-12-10T05:17:07.478Z,76.80
2018-12-10T05:19:35.017Z,76.00
2018-12-10T05:22:02.534Z,76.10
2018-12-10T05:24:30.053Z,76.20
2018-12-10T05:26:57.617Z,75.90
2018-12-10T05:29:25.158Z,75.40
2018-12-10T05:31:52.701Z,75.90
2018-12-10T05:34:20.518Z,75.30
2018-12-10T05:36:48.026Z,75.50
2018-12-10T05:39:15.574Z,75.00
2018-12-10T05:41:43.182Z,74.90
2018-12-10T05:44:10.744Z,75.20
2018-12-10T05:46:38.263Z,75.30
2018-12-10T05:49:05.797Z,76.10
2018-12-10T05:51:33.352Z,74.80
2018-12-10T05:54:00.897Z,74.20
2018-12-10T05:56:28.451Z,74.40
2018-12-10T05:58:56.006Z,73.90
2018-12-10T06:01:23.566Z,74.50
2018-12-10T06:03:51.100Z,74.20
2018-12-10T06:06:19.122Z,74.90
2018-12-10T06:08:46.890Z,74.40
2018-12-10T06:11:14.428Z,74.30
2018-12-10T06:13:41.959Z,73.30
2018-12-10T06:16:09.520Z,73.40
2018-12-10T06:18:37.149Z,73.50
2018-12-10T06:21:04.741Z,74.30
2018-12-10T06:23:32.812Z,72.80
2018-12-10T06:26:00.402Z,73.00
2018-12-10T06:28:27.961Z,73.00
2018-12-10T06:30:55.523Z,73.20
2018-12-10T06:33:23.286Z,72.80
2018-12-10T06:35:50.821Z,72.50
2018-12-10T06:38:18.374Z,72.80
2018-12-10T06:40:47.063Z,72.80
2018-12-10T06:43:14.650Z,72.70
2018-12-10T06:45:43.014Z,72.20
2018-12-10T06:48:10.814Z,72.20
2018-12-10T06:50:38.586Z,72.60
2018-12-10T06:53:06.278Z,71.60
2018-12-10T06:55:33.822Z,72.20
2018-12-10T06:58:01.461Z,71.70
2018-12-10T07:00:29.947Z,71.50
2018-12-10T07:02:58.386Z,70.80
2018-12-10T07:05:25.977Z,70.60
2018-12-10T07:07:53.569Z,70.40
2018-12-10T07:10:21.235Z,70.40
2018-12-10T07:12:48.767Z,69.90
2018-12-10T07:15:16.356Z,70.20
2018-12-10T07:17:43.916Z,70.30
2018-12-10T07:20:11.599Z,70.20
2018-12-10T07:22:39.203Z,70.40
2018-12-10T07:25:09.960Z,70.30
2018-12-10T07:27:39.256Z,70.20
2018-12-10T07:30:07.897Z,71.00
2018-12-10T07:32:35.418Z,70.70
2018-12-10T07:35:02.979Z,70.50
2018-12-10T07:37:32.392Z,70.70
2018-12-10T07:40:00.958Z,71.00
2018-12-10T07:42:28.632Z,70.80
2018-12-10T07:44:56.191Z,70.70
2018-12-10T07:47:23.858Z,70.80
2018-12-10T07:49:51.454Z,71.30
2018-12-10T07:52:20.383Z,71.10
2018-12-10T07:54:48.577Z,70.80
2018-12-10T07:57:16.176Z,71.30
2018-12-10T07:59:44.186Z,71.40
2018-12-10T08:02:11.811Z,70.80
2018-12-10T08:04:39.374Z,71.40
2018-12-10T08:07:06.950Z,70.80
2018-12-10T08:09:34.668Z,70.60
2018-12-10T08:12:02.531Z,70.80
2018-12-10T08:14:30.271Z,71.00
2018-12-10T08:16:57.870Z,71.80
2018-12-10T08:19:25.619Z,71.90
2018-12-10T08:21:53.191Z,71.70
2018-12-10T08:24:20.837Z,72.20
2018-12-10T08:26:48.886Z,71.80
2018-12-10T08:29:16.442Z,71.40
2018-12-10T08:31:43.966Z,71.60
2018-12-10T08:34:11.478Z,72.10
2018-12-10T08:36:39.122Z,72.60
2018-12-10T08:39:07.111Z,71.80
2018-12-10T08:41:34.673Z,71.70
2018-12-10T08:44:02.413Z,70.80
2018-12-10T08:46:29.990Z,71.20
2018-12-10T08:48:57.573Z,71.30
2018-12-10T08:51:25.194Z,71.10
2018-12-10T08:53:52.948Z,70.70
2018-12-10T08:56:20.466Z,70.30
2018-12-10T08:58:47.983Z,70.10
2018-12-10T09:01:15.579Z,70.60
2018-12-10T09:03:43.168Z,71.10
2018-12-10T09:06:10.699Z,72.00
2018-12-10T09:08:38.241Z,70.70
2018-12-10T09:11:06.053Z,70.60
2018-12-10T09:13:33.619Z,69.90
2018-12-10T09:16:01.152Z,71.60
2018-12-10T09:18:29.192Z,70.80
2018-12-10T09:20:56.705Z,70.30
2018-12-10T09:23:24.250Z,70.50
2018-12-10T09:25:51.853Z,70.30
2018-12-10T09:28:19.804Z,69.60
2018-12-10T09:30:48.302Z,69.60
2018-12-10T09:33:15.941Z,69.90
2018-12-10T09:35:43.497Z,69.80
2018-12-10T09:38:11.029Z,70.00
2018-12-10T09:40:38.552Z,69.10
2018-12-10T09:43:06.109Z,68.70
2018-12-10T09:45:33.671Z,68.40
2018-12-10T09:48:01.198Z,68.40
2018-12-10T09:50:29.505Z,68.70
2018-12-10T09:52:57.108Z,69.10
2018-12-10T09:55:24.656Z,68.90
2018-12-10T09:57:52.838Z,70.90
2018-12-10T10:00:20.385Z,69.60
2018-12-10T10:02:47.961Z,69.50
2018-12-10T10:05:15.466Z,69.30
2018-12-10T10:07:43.148Z,67.30
2018-12-10T10:10:10.673Z,70.40
2018-12-10T10:12:38.542Z,68.90
2018-12-10T10:15:06.136Z,68.30
2018-12-10T10:17:33.679Z,68.90
2018-12-10T10:20:01.296Z,69.50
2018-12-10T10:22:28.799Z,68.10
2018-12-10T10:24:56.409Z,67.70
2018-12-10T10:27:24.209Z,67.90
2018-12-10T10:29:52.707Z,68.10
2018-12-10T10:32:20.261Z,67.80
2018-12-10T10:34:47.860Z,68.10
2018-12-10T10:37:15.419Z,67.90
2018-12-10T10:39:43.102Z,68.00
2018-12-10T10:42:10.866Z,67.70
2018-12-10T10:44:38.390Z,68.30
2018-12-10T10:47:06.088Z,68.10
2018-12-10T10:49:33.945Z,68.30
2018-12-10T10:52:01.725Z,69.50
2018-12-10T10:54:29.294Z,68.30
2018-12-10T10:56:56.834Z,68.40
2018-12-10T10:59:24.652Z,68.70
2018-12-10T11:01:53.942Z,68.90
2018-12-10T11:04:21.895Z,68.70
2018-12-10T11:06:49.586Z,70.20
2018-12-10T11:09:18.222Z,70.20
2018-12-10T11:11:46.102Z,70.30
2018-12-10T11:14:13.746Z,69.40
2018-12-10T11:16:42.123Z,69.20
2018-12-10T11:19:09.735Z,69.20
2018-12-10T11:21:37.554Z,69.10
2018-12-10T11:24:05.207Z,69.10
2018-12-10T11:26:32.788Z,69.30
2018-12-10T11:29:00.337Z,69.20
2018-12-10T11:31:28.257Z,68.70
2018-12-10T11:33:55.810Z,68.90
2018-12-10T11:36:24.070Z,68.50
2018-12-10T11:38:51.573Z,68.40
2018-12-10T11:41:19.130Z,68.80
2018-12-10T11:43:46.698Z,68.80
2018-12-10T11:46:14.263Z,68.00
2018-12-10T11:48:41.768Z,67.80
2018-12-10T11:51:10.126Z,68.00
2018-12-10T11:53:37.963Z,67.60
2018-12-10T11:56:05.713Z,67.10
2018-12-10T11:58:33.305Z,67.90
2018-12-10T12:01:00.841Z,68.20
2018-12-10T12:03:28.465Z,68.40
2018-12-10T12:05:56.049Z,68.10
2018-12-10T12:08:25.276Z,68.10
2018-12-10T12:10:52.799Z,67.30
2018-12-10T12:13:20.336Z,67.90
2018-12-10T12:15:48.023Z,67.00
2018-12-10T12:18:15.727Z,66.70
2018-12-10T12:20:43.264Z,67.20
2018-12-10T12:23:11.195Z,67.20
2018-12-10T12:25:38.770Z,67.70
2018-12-10T12:28:06.323Z,66.90
2018-12-10T12:30:34.468Z,67.20
2018-12-10T12:33:02.133Z,67.60
2018-12-10T12:35:29.911Z,67.40
2018-12-10T12:37:57.495Z,67.90
2018-12-10T12:40:25.020Z,66.40
2018-12-10T12:42:52.705Z,66.70
2018-12-10T12:45:20.292Z,67.50
2018-12-10T12:47:47.905Z,66.60
2018-12-10T12:50:15.489Z,65.90
2018-12-10T12:52:48.243Z,66.60
2018-12-10T12:55:16.084Z,66.40
2018-12-10T12:57:43.858Z,67.70
2018-12-10T13:00:11.461Z,66.60
2018-12-10T13:02:39.829Z,66.20
2018-12-10T13:05:07.446Z,66.70
2018-12-10T13:07:35.815Z,66.80
2018-12-10T13:10:03.832Z,66.40
2018-12-10T13:12:31.537Z,65.50
2018-12-10T13:14:59.058Z,66.40
2018-12-10T13:17:26.674Z,65.50
2018-12-10T13:19:54.179Z,66.30
2018-12-10T13:22:22.584Z,66.20
2018-12-10T13:24:50.137Z,66.80
2018-12-10T13:27:18.283Z,67.50
2018-12-10T13:29:45.805Z,66.70
2018-12-10T13:32:14.250Z,66.60
2018-12-10T13:34:41.976Z,66.80
2018-12-10T13:37:09.568Z,66.40
2018-12-10T13:39:37.406Z,66.00
2018-12-10T13:42:04.922Z,66.10
2018-12-10T13:44:32.477Z,66.20
2018-12-10T13:47:00.958Z,66.50
2018-12-10T13:49:28.470Z,66.10
2018-12-10T13:51:56.034Z,65.80
2018-12-10T13:54:23.584Z,66.00
2018-12-10T13:56:51.262Z,66.20
2018-12-10T13:59:19.112Z,66.00
2018-12-10T14:01:46.678Z,65.80
2018-12-10T14:04:15.637Z,66.00
2018-12-10T14:06:43.977Z,66.30
2018-12-10T14:09:11.494Z,66.40
2018-12-10T14:11:39.405Z,65.50
2018-12-10T14:14:07.243Z,64.30
2018-12-10T14:16:34.756Z,64.20
2018-12-10T14:19:02.298Z,64.30
2018-12-10T14:21:29.809Z,64.50
2018-12-10T14:23:57.394Z,65.50
2018-12-10T14:26:25.046Z,64.50
2018-12-10T14:28:52.632Z,64.20
2018-12-10T14:31:20.164Z,64.00
2018-12-10T14:33:47.880Z,64.10
2018-12-10T14:36:15.572Z,63.80
2018-12-10T14:38:43.591Z,63.80
2018-12-10T14:41:11.170Z,64.00
2018-12-10T14:43:39.862Z,63.60
2018-12-10T14:46:07.655Z,63.20
2018-12-10T14:48:35.234Z,63.50
2018-12-10T14:51:02.729Z,63.30
2018-12-10T14:53:30.748Z,63.50
2018-12-10T14:55:58.931Z,64.30
2018-12-10T14:58:26.559Z,65.00
2018-12-10T15:00:54.652Z,65.10
2018-12-10T15:03:22.531Z,64.40
2018-12-10T15:05:50.469Z,63.50
2018-12-10T15:08:18.106Z,63.40
2018-12-10T15:10:45.686Z,63.70
2018-12-10T15:13:13.278Z,64.30
2018-12-10T15:15:40.969Z,63.90
2018-12-10T15:18:08.548Z,65.20
2018-12-10T15:20:36.095Z,64.30
2018-12-10T15:23:04.014Z,63.40
2018-12-10T15:25:31.837Z,63.20
2018-12-10T15:27:59.391Z,63.50
2018-12-10T15:30:26.953Z,63.80
2018-12-10T15:32:54.460Z,62.40
2018-12-10T15:35:22.107Z,62.70
2018-12-10T15:37:49.624Z,62.50
2018-12-10T15:40:17.805Z,62.60
2018-12-10T15:42:46.085Z,62.90
2018-12-10T15:45:13.664Z,62.90
2018-12-10T15:47:41.198Z,64.20
2018-12-10T15:50:08.800Z,64.00
2018-12-10T15:52:36.466Z,63.20
2018-12-10T15:55:04.979Z,63.50
2018-12-10T15:57:32.540Z,62.80
2018-12-10T16:00:00.537Z,63.40
2018-12-10T16:02:28.378Z,63.90
2018-12-10T16:04:56.048Z,62.80
2018-12-10T16:07:23.881Z,63.80
2018-12-10T16:09:51.418Z,62.80
2018-12-10T16:12:18.976Z,63.30
2018-12-10T16:14:46.817Z,63.00
2018-12-10T16:17:14.407Z,63.70
2018-12-10T16:19:42.524Z,63.00
2018-12-10T16:22:10.027Z,62.50
2018-12-10T16:24:37.573Z,62.40
2018-12-10T16:27:05.249Z,62.10
2018-12-10T16:29:32.836Z,62.30
2018-12-10T16:32:00.913Z,62.30
2018-12-10T16:34:28.456Z,62.30
2018-12-10T16:36:56.071Z,63.10
2018-12-10T16:39:23.724Z,62.50
2018-12-10T16:41:51.243Z,61.90
2018-12-10T16:44:18.933Z,62.10
2018-12-10T16:46:46.482Z,62.00
2018-12-10T16:49:41.288Z,62.10
2018-12-10T16:52:09.651Z,61.70
2018-12-10T16:54:37.215Z,61.80
2018-12-10T16:57:04.788Z,61.30
2018-12-10T16:59:32.346Z,61.40
2018-12-10T17:01:59.869Z,61.50
2018-12-10T17:04:27.413Z,61.50
2018-12-10T17:06:54.941Z,62.00
2018-12-10T17:09:22.916Z,62.10
2018-12-10T17:11:51.147Z,62.20
2018-12-10T17:14:18.980Z,63.10
2018-12-10T17:16:46.609Z,63.10
2018-12-10T17:19:14.193Z,62.20
2018-12-10T17:21:41.777Z,62.70
2018-12-10T17:24:09.374Z,62.90
2018-12-10T17:26:36.898Z,62.40
2018-12-10T17:29:04.452Z,63.10
2018-12-10T17:31:32.109Z,63.80
2018-12-10T17:33:59.738Z,63.70
2018-12-10T17:36:27.318Z,63.90
2018-12-10T17:38:54.861Z,63.70
2018-12-10T17:41:22.381Z,65.70
2018-12-10T17:43:50.588Z,65.00
2018-12-10T17:46:18.109Z,64.30
2018-12-10T17:48:45.692Z,64.50
2018-12-10T17:51:14.311Z,65.80
2018-12-10T17:53:42.274Z,65.10
2018-12-10T17:56:09.929Z,65.50
2018-12-10T17:58:37.574Z,65.00
2018-12-10T18:01:05.489Z,65.00
2018-12-10T18:03:33.053Z,65.00
2018-12-10T18:06:00.750Z,65.00
2018-12-10T18:08:28.324Z,64.60
2018-12-10T18:10:55.961Z,64.70
2018-12-10T18:13:23.501Z,65.30
2018-12-10T18:15:51.043Z,65.30
2018-12-10T18:18:18.603Z,65.00
2018-12-10T18:20:46.187Z,64.80
2018-12-10T18:23:14.439Z,65.60
2018-12-10T18:25:42.206Z,65.60
2018-12-10T18:28:09.760Z,65.60
2018-12-10T18:30:37.294Z,65.60
2018-12-10T18:33:04.878Z,65.00
2018-12-10T18:35:32.488Z,65.30
2018-12-10T18:38:00.125Z,65.40
2018-12-10T18:40:28.014Z,66.60
2018-12-10T18:42:55.739Z,66.60
2018-12-10T18:45:23.267Z,67.30
2018-12-10T18:47:50.940Z,66.40
2018-12-10T18:50:18.727Z,66.40
2018-12-10T18:52:46.484Z,66.40
2018-12-10T18:55:15.330Z,67.20
2018-12-10T18:57:42.879Z,68.30
2018-12-10T19:00:11.392Z,69.20
2018-12-10T19:02:39.083Z,70.60
2018-12-10T19:05:07.288Z,71.00
2018-12-10T19:07:34.849Z,71.80
2018-12-10T19:10:02.598Z,72.10
2018-12-10T19:12:30.814Z,72.50
2018-12-10T19:14:58.464Z,72.80
2018-12-10T19:17:25.981Z,72.80
2018-12-10T19:19:53.704Z,72.10
2018-12-10T19:22:21.279Z,73.00
2018-12-10T19:24:48.962Z,72.60
2018-12-10T19:27:18.223Z,72.50
2018-12-10T19:29:45.767Z,72.10
2018-12-10T19:32:13.680Z,72.60
2018-12-10T19:34:41.948Z,72.30
2018-12-10T19:37:09.545Z,70.90
2018-12-10T19:39:37.065Z,71.40
2018-12-10T19:42:04.858Z,71.30
2018-12-10T19:44:32.375Z,69.80
2018-12-10T19:46:59.932Z,71.40
2018-12-10T19:49:28.373Z,71.20
2018-12-10T19:51:56.004Z,71.00
2018-12-10T19:54:23.782Z,71.30
2018-12-10T19:56:51.525Z,70.70
2018-12-10T19:59:19.161Z,70.70
2018-12-10T20:01:46.692Z,69.20
2018-12-10T20:04:14.792Z,69.20
2018-12-10T20:09:43.416Z,68.90
2018-12-10T20:12:11.224Z,68.70
2018-12-10T20:14:39.586Z,68.60
2018-12-10T20:17:07.265Z,68.50
2018-12-10T20:19:35.133Z,68.00
2018-12-10T20:22:02.742Z,67.50
2018-12-10T20:24:30.362Z,67.70
2018-12-10T20:26:59.034Z,67.90
2018-12-10T20:29:27.115Z,67.80
2018-12-10T20:31:54.805Z,67.90
2018-12-10T20:34:22.643Z,67.70
2018-12-10T20:36:50.178Z,67.80
2018-12-10T20:39:17.776Z,67.60
2018-12-10T20:41:45.388Z,68.10
2018-12-10T20:44:13.107Z,67.80
2018-12-10T20:46:41.084Z,67.40
2018-12-10T20:49:08.631Z,67.50
2018-12-10T20:51:37.300Z,68.60
2018-12-10T20:54:04.862Z,68.50
2018-12-10T20:56:32.516Z,69.00
2018-12-10T20:59:00.117Z,68.70
2018-12-10T21:01:27.750Z,67.40
2018-12-10T21:03:56.147Z,67.40
2018-12-10T21:06:30.033Z,66.80
2018-12-10T21:08:57.774Z,67.10
2018-12-10T21:11:25.474Z,67.10
2018-12-10T21:13:53.490Z,68.30
2018-12-10T21:16:21.264Z,68.10
2018-12-10T21:18:48.829Z,68.30
2018-12-10T21:21:16.363Z,67.50
2018-12-10T21:23:43.933Z,68.30
2018-12-10T21:26:11.474Z,68.50
2018-12-10T21:28:39.204Z,68.50
2018-12-10T21:31:06.945Z,67.80
2018-12-10T21:33:36.396Z,67.70
2018-12-10T21:36:04.445Z,67.80
2018-12-10T21:38:32.003Z,67.90
2018-12-10T21:40:59.562Z,68.20
2018-12-10T21:43:27.100Z,68.20
2018-12-10T21:45:54.632Z,68.40
2018-12-10T21:48:22.176Z,68.40
2018-12-10T21:50:49.695Z,68.40
2018-12-10T21:53:17.285Z,68.70
2018-12-10T21:55:45.232Z,68.60
2018-12-10T21:58:12.791Z,69.40
2018-12-10T22:00:40.363Z,69.60
2018-12-10T22:03:08.092Z,69.50
2018-12-10T22:05:35.633Z,68.90
2018-12-10T22:08:03.292Z,68.60
2018-12-10T22:10:30.824Z,68.80
2018-12-10T22:12:58.637Z,69.20
2018-12-10T22:15:26.453Z,69.10
2018-12-10T22:17:54.011Z,69.20
2018-12-10T22:20:21.627Z,69.40
2018-12-10T22:22:49.179Z,69.10
2018-12-10T22:25:17.035Z,68.40
2018-12-10T22:27:44.665Z,68.50
2018-12-10T22:30:12.201Z,68.60
2018-12-10T22:32:39.781Z,69.40
2018-12-10T22:35:07.705Z,68.50
2018-12-10T22:37:35.775Z,68.50
2018-12-10T22:40:05.080Z,69.20
2018-12-10T22:42:32.604Z,69.10
2018-12-10T22:45:00.605Z,68.30
2018-12-10T22:47:28.129Z,69.00
2018-12-10T22:49:55.709Z,68.70
2018-12-10T22:52:23.240Z,69.40
2018-12-10T22:54:50.813Z,68.60
2018-12-10T22:57:18.356Z,67.90
2018-12-10T22:59:45.933Z,67.30
2018-12-10T23:02:13.646Z,67.60
2018-12-10T23:04:41.183Z,67.30
2018-12-10T23:07:08.766Z,67.50
2018-12-10T23:09:36.308Z,67.20
2018-12-10T23:12:03.902Z,67.20
2018-12-10T23:14:31.433Z,67.00
2018-12-10T23:16:59.086Z,67.00
2018-12-10T23:19:26.621Z,67.90
2018-12-10T23:21:54.211Z,68.20
2018-12-10T23:24:21.758Z,68.30
2018-12-10T23:26:49.348Z,68.00
2018-12-10T23:29:17.568Z,67.00
2018-12-10T23:31:45.189Z,67.10
2018-12-10T23:34:13.040Z,67.10
2018-12-10T23:36:40.562Z,66.60
2018-12-10T23:39:08.137Z,66.50
2018-12-10T23:41:35.678Z,67.30
2018-12-10T23:44:03.207Z,67.70
2018-12-10T23:46:30.773Z,67.20
2018-12-10T23:48:58.335Z,67.40
2018-12-10T23:51:25.878Z,68.00
2018-12-10T23:53:53.570Z,67.20
2018-12-10T23:56:21.138Z,68.80
2018-12-10T23:58:48.696Z,67.90
